sensor_id;sensor_type;location;lat;lon;timestamp;P1;durP1;ratioP1;P2;durP2;ratioP2
12145;SDS011;6136;47.032;15.398;2023-04-03T00:01:18;1.60;;;1.50;;
12145;SDS011;6136;47.032;15.398;2023-04-03T00:03:47;1.80;;;1.70;;
12145;SDS011;6136;47.032;15.398;2023-04-03T00:06:16;1.50;;;1.40;;
12145;SDS011;6136;47.032;15.398;2023-04-03T00:08:44;1.77;;;1.67;;
12145;SDS011;6136;47.032;15.398;2023-04-03T00:11:13;1.60;;;1.50;;
12145;SDS011;6136;47.032;15.398;2023-04-03T00:13:42;1.77;;;1.67;;
12145;SDS011;6136;47.032;15.398;2023-04-03T00:16:11;2.83;;;1.93;;
12145;SDS011;6136;47.032;15.398;2023-04-03T00:18:40;1.73;;;1.60;;
12145;SDS011;6136;47.032;15.398;2023-04-03T00:21:09;1.80;;;1.70;;
12145;SDS011;6136;47.032;15.398;2023-04-03T00:23:41;1.73;;;1.63;;
12145;SDS011;6136;47.032;15.398;2023-04-03T00:26:09;1.70;;;1.60;;
12145;SDS011;6136;47.032;15.398;2023-04-03T00:28:39;1.60;;;1.50;;
12145;SDS011;6136;47.032;15.398;2023-04-03T00:31:07;2.03;;;1.83;;
12145;SDS011;6136;47.032;15.398;2023-04-03T00:33:36;2.80;;;1.80;;
12145;SDS011;6136;47.032;15.398;2023-04-03T00:36:05;1.70;;;1.60;;
12145;SDS011;6136;47.032;15.398;2023-04-03T00:38:35;2.03;;;1.90;;
12145;SDS011;6136;47.032;15.398;2023-04-03T00:41:06;1.53;;;1.43;;
12145;SDS011;6136;47.032;15.398;2023-04-03T00:43:35;2.10;;;1.90;;
12145;SDS011;6136;47.032;15.398;2023-04-03T00:46:03;1.97;;;1.70;;
12145;SDS011;6136;47.032;15.398;2023-04-03T00:48:32;1.60;;;1.50;;
12145;SDS011;6136;47.032;15.398;2023-04-03T00:51:02;2.07;;;1.83;;
12145;SDS011;6136;47.032;15.398;2023-04-03T00:53:34;1.63;;;1.53;;
12145;SDS011;6136;47.032;15.398;2023-04-03T00:56:08;2.30;;;2.10;;
12145;SDS011;6136;47.032;15.398;2023-04-03T00:58:39;2.23;;;2.03;;
12145;SDS011;6136;47.032;15.398;2023-04-03T01:01:12;1.70;;;1.60;;
12145;SDS011;6136;47.032;15.398;2023-04-03T01:03:46;2.00;;;1.67;;
12145;SDS011;6136;47.032;15.398;2023-04-03T01:06:16;1.87;;;1.70;;
12145;SDS011;6136;47.032;15.398;2023-04-03T01:08:48;2.10;;;1.70;;
12145;SDS011;6136;47.032;15.398;2023-04-03T01:11:19;1.70;;;1.60;;
12145;SDS011;6136;47.032;15.398;2023-04-03T01:13:48;1.87;;;1.77;;
12145;SDS011;6136;47.032;15.398;2023-04-03T01:16:16;2.70;;;1.87;;
12145;SDS011;6136;47.032;15.398;2023-04-03T01:18:46;1.83;;;1.73;;
12145;SDS011;6136;47.032;15.398;2023-04-03T01:21:37;2.10;;;1.80;;
12145;SDS011;6136;47.032;15.398;2023-04-03T01:24:31;1.60;;;1.50;;
12145;SDS011;6136;47.032;15.398;2023-04-03T01:27:05;2.57;;;2.03;;
12145;SDS011;6136;47.032;15.398;2023-04-03T01:29:35;2.10;;;1.90;;
12145;SDS011;6136;47.032;15.398;2023-04-03T01:32:06;1.90;;;1.70;;
12145;SDS011;6136;47.032;15.398;2023-04-03T01:34:35;2.27;;;2.07;;
12145;SDS011;6136;47.032;15.398;2023-04-03T01:37:04;1.70;;;1.60;;
12145;SDS011;6136;47.032;15.398;2023-04-03T01:39:32;1.93;;;1.83;;
12145;SDS011;6136;47.032;15.398;2023-04-03T01:42:01;2.03;;;1.93;;
12145;SDS011;6136;47.032;15.398;2023-04-03T01:44:34;2.77;;;2.10;;
12145;SDS011;6136;47.032;15.398;2023-04-03T01:47:04;1.63;;;1.50;;
12145;SDS011;6136;47.032;15.398;2023-04-03T01:49:36;2.57;;;1.70;;
12145;SDS011;6136;47.032;15.398;2023-04-03T01:52:04;2.10;;;1.83;;
12145;SDS011;6136;47.032;15.398;2023-04-03T01:54:32;3.10;;;1.80;;
12145;SDS011;6136;47.032;15.398;2023-04-03T01:57:01;4.67;;;1.90;;
12145;SDS011;6136;47.032;15.398;2023-04-03T01:59:29;1.60;;;1.50;;
12145;SDS011;6136;47.032;15.398;2023-04-03T02:01:58;1.90;;;1.67;;
12145;SDS011;6136;47.032;15.398;2023-04-03T02:04:28;2.27;;;1.90;;
12145;SDS011;6136;47.032;15.398;2023-04-03T02:06:57;2.17;;;1.87;;
12145;SDS011;6136;47.032;15.398;2023-04-03T02:09:25;3.17;;;2.13;;
12145;SDS011;6136;47.032;15.398;2023-04-03T02:11:54;2.00;;;1.90;;
12145;SDS011;6136;47.032;15.398;2023-04-03T02:14:22;2.20;;;2.00;;
12145;SDS011;6136;47.032;15.398;2023-04-03T02:16:51;2.10;;;1.90;;
12145;SDS011;6136;47.032;15.398;2023-04-03T02:19:21;2.20;;;1.73;;
12145;SDS011;6136;47.032;15.398;2023-04-03T02:21:51;1.80;;;1.70;;
12145;SDS011;6136;47.032;15.398;2023-04-03T02:24:19;2.20;;;1.90;;
12145;SDS011;6136;47.032;15.398;2023-04-03T02:26:47;1.60;;;1.50;;
12145;SDS011;6136;47.032;15.398;2023-04-03T02:29:16;2.23;;;2.03;;
12145;SDS011;6136;47.032;15.398;2023-04-03T02:31:44;1.97;;;1.77;;
12145;SDS011;6136;47.032;15.398;2023-04-03T02:34:12;1.60;;;1.50;;
12145;SDS011;6136;47.032;15.398;2023-04-03T02:36:41;3.13;;;1.50;;
12145;SDS011;6136;47.032;15.398;2023-04-03T02:39:12;1.97;;;1.80;;
12145;SDS011;6136;47.032;15.398;2023-04-03T02:41:41;2.33;;;1.60;;
12145;SDS011;6136;47.032;15.398;2023-04-03T02:44:16;2.10;;;1.90;;
12145;SDS011;6136;47.032;15.398;2023-04-03T02:46:45;1.70;;;1.60;;
12145;SDS011;6136;47.032;15.398;2023-04-03T02:49:13;1.43;;;1.33;;
12145;SDS011;6136;47.032;15.398;2023-04-03T02:51:42;1.70;;;1.60;;
12145;SDS011;6136;47.032;15.398;2023-04-03T02:54:12;2.20;;;2.00;;
12145;SDS011;6136;47.032;15.398;2023-04-03T02:56:44;2.20;;;1.83;;
12145;SDS011;6136;47.032;15.398;2023-04-03T02:59:13;3.20;;;1.63;;
12145;SDS011;6136;47.032;15.398;2023-04-03T03:01:42;1.80;;;1.70;;
12145;SDS011;6136;47.032;15.398;2023-04-03T03:04:10;1.90;;;1.80;;
12145;SDS011;6136;47.032;15.398;2023-04-03T03:06:39;1.93;;;1.70;;
12145;SDS011;6136;47.032;15.398;2023-04-03T03:09:11;3.33;;;1.60;;
12145;SDS011;6136;47.032;15.398;2023-04-03T03:11:41;1.60;;;1.50;;
12145;SDS011;6136;47.032;15.398;2023-04-03T03:14:10;1.57;;;1.47;;
12145;SDS011;6136;47.032;15.398;2023-04-03T03:16:38;1.97;;;1.70;;
12145;SDS011;6136;47.032;15.398;2023-04-03T03:19:06;1.70;;;1.60;;
12145;SDS011;6136;47.032;15.398;2023-04-03T03:21:34;1.67;;;1.57;;
12145;SDS011;6136;47.032;15.398;2023-04-03T03:24:03;1.90;;;1.80;;
12145;SDS011;6136;47.032;15.398;2023-04-03T03:26:33;1.70;;;1.60;;
12145;SDS011;6136;47.032;15.398;2023-04-03T03:29:02;1.60;;;1.50;;
12145;SDS011;6136;47.032;15.398;2023-04-03T03:31:31;1.60;;;1.50;;
12145;SDS011;6136;47.032;15.398;2023-04-03T03:33:59;1.63;;;1.53;;
12145;SDS011;6136;47.032;15.398;2023-04-03T03:36:28;1.47;;;1.37;;
12145;SDS011;6136;47.032;15.398;2023-04-03T03:38:56;1.70;;;1.60;;
12145;SDS011;6136;47.032;15.398;2023-04-03T03:41:24;1.63;;;1.53;;
12145;SDS011;6136;47.032;15.398;2023-04-03T03:43:54;1.80;;;1.70;;
12145;SDS011;6136;47.032;15.398;2023-04-03T03:46:23;1.50;;;1.40;;
12145;SDS011;6136;47.032;15.398;2023-04-03T03:48:52;1.77;;;1.57;;
12145;SDS011;6136;47.032;15.398;2023-04-03T03:51:20;1.83;;;1.70;;
12145;SDS011;6136;47.032;15.398;2023-04-03T03:53:49;1.40;;;1.30;;
12145;SDS011;6136;47.032;15.398;2023-04-03T03:56:19;1.70;;;1.60;;
12145;SDS011;6136;47.032;15.398;2023-04-03T03:58:47;1.70;;;1.53;;
12145;SDS011;6136;47.032;15.398;2023-04-03T04:01:17;3.13;;;1.60;;
12145;SDS011;6136;47.032;15.398;2023-04-03T04:03:47;2.93;;;1.80;;
12145;SDS011;6136;47.032;15.398;2023-04-03T04:06:20;2.20;;;1.63;;
12145;SDS011;6136;47.032;15.398;2023-04-03T04:08:49;2.17;;;1.97;;
12145;SDS011;6136;47.032;15.398;2023-04-03T04:11:17;1.60;;;1.50;;
12145;SDS011;6136;47.032;15.398;2023-04-03T04:13:48;1.53;;;1.43;;
12145;SDS011;6136;47.032;15.398;2023-04-03T04:16:20;2.50;;;1.70;;
12145;SDS011;6136;47.032;15.398;2023-04-03T04:18:48;1.70;;;1.60;;
12145;SDS011;6136;47.032;15.398;2023-04-03T04:21:17;1.70;;;1.60;;
12145;SDS011;6136;47.032;15.398;2023-04-03T04:23:47;1.40;;;1.30;;
12145;SDS011;6136;47.032;15.398;2023-04-03T04:26:15;1.50;;;1.40;;
12145;SDS011;6136;47.032;15.398;2023-04-03T04:28:43;4.07;;;1.50;;
12145;SDS011;6136;47.032;15.398;2023-04-03T04:31:12;1.73;;;1.63;;
12145;SDS011;6136;47.032;15.398;2023-04-03T04:33:41;1.70;;;1.60;;
12145;SDS011;6136;47.032;15.398;2023-04-03T04:36:12;1.87;;;1.50;;
12145;SDS011;6136;47.032;15.398;2023-04-03T04:38:43;1.80;;;1.33;;
12145;SDS011;6136;47.032;15.398;2023-04-03T04:41:12;1.53;;;1.43;;
12145;SDS011;6136;47.032;15.398;2023-04-03T04:43:41;1.67;;;1.53;;
12145;SDS011;6136;47.032;15.398;2023-04-03T04:46:10;1.70;;;1.40;;
12145;SDS011;6136;47.032;15.398;2023-04-03T04:48:46;2.10;;;1.50;;
12145;SDS011;6136;47.032;15.398;2023-04-03T04:51:16;1.33;;;1.23;;
12145;SDS011;6136;47.032;15.398;2023-04-03T04:53:45;1.60;;;1.43;;
12145;SDS011;6136;47.032;15.398;2023-04-03T04:56:15;1.60;;;1.50;;
12145;SDS011;6136;47.032;15.398;2023-04-03T04:58:45;1.60;;;1.50;;
12145;SDS011;6136;47.032;15.398;2023-04-03T05:01:16;1.80;;;1.70;;
12145;SDS011;6136;47.032;15.398;2023-04-03T05:03:59;1.20;;;1.20;;
12145;SDS011;6136;47.032;15.398;2023-04-03T05:06:28;1.50;;;1.40;;
12145;SDS011;6136;47.032;15.398;2023-04-03T05:09:00;2.77;;;1.40;;
12145;SDS011;6136;47.032;15.398;2023-04-03T05:11:30;1.30;;;1.20;;
12145;SDS011;6136;47.032;15.398;2023-04-03T05:13:58;1.53;;;1.43;;
12145;SDS011;6136;47.032;15.398;2023-04-03T05:16:28;2.17;;;1.60;;
12145;SDS011;6136;47.032;15.398;2023-04-03T05:18:56;1.50;;;1.40;;
12145;SDS011;6136;47.032;15.398;2023-04-03T05:21:26;1.40;;;1.30;;
12145;SDS011;6136;47.032;15.398;2023-04-03T05:24:02;2.03;;;1.47;;
12145;SDS011;6136;47.032;15.398;2023-04-03T05:26:32;1.10;;;1.10;;
12145;SDS011;6136;47.032;15.398;2023-04-03T05:29:01;1.40;;;1.30;;
12145;SDS011;6136;47.032;15.398;2023-04-03T05:31:29;5.47;;;1.57;;
12145;SDS011;6136;47.032;15.398;2023-04-03T05:33:58;1.53;;;1.43;;
12145;SDS011;6136;47.032;15.398;2023-04-03T05:36:29;1.77;;;1.40;;
12145;SDS011;6136;47.032;15.398;2023-04-03T05:39:03;1.23;;;1.13;;
12145;SDS011;6136;47.032;15.398;2023-04-03T05:41:35;1.50;;;1.40;;
12145;SDS011;6136;47.032;15.398;2023-04-03T05:44:03;1.60;;;1.40;;
12145;SDS011;6136;47.032;15.398;2023-04-03T05:46:31;1.40;;;1.30;;
12145;SDS011;6136;47.032;15.398;2023-04-03T05:49:03;1.60;;;1.33;;
12145;SDS011;6136;47.032;15.398;2023-04-03T05:51:35;1.57;;;1.33;;
12145;SDS011;6136;47.032;15.398;2023-04-03T05:54:16;1.37;;;1.20;;
12145;SDS011;6136;47.032;15.398;2023-04-03T05:56:51;2.80;;;1.50;;
12145;SDS011;6136;47.032;15.398;2023-04-03T05:59:21;1.30;;;1.20;;
12145;SDS011;6136;47.032;15.398;2023-04-03T06:01:52;2.30;;;1.20;;
12145;SDS011;6136;47.032;15.398;2023-04-03T06:04:20;1.27;;;1.17;;
12145;SDS011;6136;47.032;15.398;2023-04-03T06:06:51;2.10;;;1.40;;
12145;SDS011;6136;47.032;15.398;2023-04-03T06:09:22;2.57;;;1.20;;
12145;SDS011;6136;47.032;15.398;2023-04-03T06:11:53;1.40;;;1.30;;
12145;SDS011;6136;47.032;15.398;2023-04-03T06:14:23;1.40;;;1.30;;
12145;SDS011;6136;47.032;15.398;2023-04-03T06:16:51;1.27;;;1.20;;
12145;SDS011;6136;47.032;15.398;2023-04-03T06:19:20;1.30;;;1.20;;
12145;SDS011;6136;47.032;15.398;2023-04-03T06:21:53;1.37;;;1.27;;
12145;SDS011;6136;47.032;15.398;2023-04-03T06:24:23;1.97;;;1.30;;
12145;SDS011;6136;47.032;15.398;2023-04-03T06:26:56;1.30;;;1.20;;
12145;SDS011;6136;47.032;15.398;2023-04-03T06:29:28;1.17;;;1.10;;
12145;SDS011;6136;47.032;15.398;2023-04-03T06:31:56;1.30;;;1.20;;
12145;SDS011;6136;47.032;15.398;2023-04-03T06:34:25;2.47;;;1.20;;
12145;SDS011;6136;47.032;15.398;2023-04-03T06:36:55;1.20;;;1.10;;
12145;SDS011;6136;47.032;15.398;2023-04-03T06:39:23;1.50;;;1.40;;
12145;SDS011;6136;47.032;15.398;2023-04-03T06:41:52;1.40;;;1.30;;
12145;SDS011;6136;47.032;15.398;2023-04-03T06:44:28;2.93;;;1.27;;
12145;SDS011;6136;47.032;15.398;2023-04-03T06:46:57;1.10;;;1.10;;
12145;SDS011;6136;47.032;15.398;2023-04-03T06:49:25;5.87;;;1.37;;
12145;SDS011;6136;47.032;15.398;2023-04-03T06:51:55;1.60;;;1.30;;
12145;SDS011;6136;47.032;15.398;2023-04-03T06:54:26;1.27;;;1.17;;
12145;SDS011;6136;47.032;15.398;2023-04-03T06:56:55;2.77;;;1.10;;
12145;SDS011;6136;47.032;15.398;2023-04-03T06:59:24;1.47;;;1.30;;
12145;SDS011;6136;47.032;15.398;2023-04-03T07:01:52;2.00;;;1.20;;
12145;SDS011;6136;47.032;15.398;2023-04-03T07:04:25;1.63;;;1.23;;
12145;SDS011;6136;47.032;15.398;2023-04-03T07:06:53;1.40;;;1.30;;
12145;SDS011;6136;47.032;15.398;2023-04-03T07:09:23;1.07;;;1.00;;
12145;SDS011;6136;47.032;15.398;2023-04-03T07:11:52;1.63;;;1.13;;
12145;SDS011;6136;47.032;15.398;2023-04-03T07:14:21;1.27;;;1.17;;
12145;SDS011;6136;47.032;15.398;2023-04-03T07:16:49;1.77;;;1.50;;
12145;SDS011;6136;47.032;15.398;2023-04-03T07:19:17;1.70;;;1.10;;
12145;SDS011;6136;47.032;15.398;2023-04-03T07:21:46;1.63;;;1.30;;
12145;SDS011;6136;47.032;15.398;2023-04-03T07:24:15;2.50;;;1.30;;
12145;SDS011;6136;47.032;15.398;2023-04-03T07:26:44;1.43;;;1.33;;
12145;SDS011;6136;47.032;15.398;2023-04-03T07:29:12;5.73;;;1.50;;
12145;SDS011;6136;47.032;15.398;2023-04-03T07:31:41;1.30;;;1.07;;
12145;SDS011;6136;47.032;15.398;2023-04-03T07:34:11;1.50;;;1.40;;
12145;SDS011;6136;47.032;15.398;2023-04-03T07:36:42;1.27;;;1.20;;
12145;SDS011;6136;47.032;15.398;2023-04-03T07:39:11;1.30;;;1.20;;
12145;SDS011;6136;47.032;15.398;2023-04-03T07:41:41;2.17;;;1.00;;
12145;SDS011;6136;47.032;15.398;2023-04-03T07:44:09;1.20;;;1.10;;
12145;SDS011;6136;47.032;15.398;2023-04-03T07:46:37;1.57;;;1.47;;
12145;SDS011;6136;47.032;15.398;2023-04-03T07:49:07;1.27;;;1.23;;
12145;SDS011;6136;47.032;15.398;2023-04-03T07:51:35;1.40;;;1.30;;
12145;SDS011;6136;47.032;15.398;2023-04-03T07:54:04;1.53;;;1.43;;
12145;SDS011;6136;47.032;15.398;2023-04-03T07:56:32;1.10;;;1.00;;
12145;SDS011;6136;47.032;15.398;2023-04-03T07:59:02;1.70;;;1.60;;
12145;SDS011;6136;47.032;15.398;2023-04-03T08:01:30;2.27;;;1.40;;
12145;SDS011;6136;47.032;15.398;2023-04-03T08:04:00;1.77;;;1.43;;
12145;SDS011;6136;47.032;15.398;2023-04-03T08:06:28;1.47;;;1.20;;
12145;SDS011;6136;47.032;15.398;2023-04-03T08:09:12;2.80;;;1.30;;
12145;SDS011;6136;47.032;15.398;2023-04-03T08:11:42;1.23;;;1.13;;
12145;SDS011;6136;47.032;15.398;2023-04-03T08:14:12;1.57;;;1.20;;
12145;SDS011;6136;47.032;15.398;2023-04-03T08:16:44;3.20;;;1.50;;
12145;SDS011;6136;47.032;15.398;2023-04-03T08:19:14;3.10;;;1.30;;
12145;SDS011;6136;47.032;15.398;2023-04-03T08:21:52;2.07;;;1.60;;
12145;SDS011;6136;47.032;15.398;2023-04-03T08:24:21;1.20;;;1.03;;
12145;SDS011;6136;47.032;15.398;2023-04-03T08:26:49;1.00;;;1.00;;
12145;SDS011;6136;47.032;15.398;2023-04-03T08:29:19;1.40;;;1.30;;
12145;SDS011;6136;47.032;15.398;2023-04-03T08:31:47;1.50;;;1.20;;
12145;SDS011;6136;47.032;15.398;2023-04-03T08:34:17;1.77;;;1.20;;
12145;SDS011;6136;47.032;15.398;2023-04-03T08:36:46;2.10;;;1.03;;
12145;SDS011;6136;47.032;15.398;2023-04-03T08:39:15;1.20;;;1.10;;
12145;SDS011;6136;47.032;15.398;2023-04-03T08:41:44;1.30;;;1.20;;
12145;SDS011;6136;47.032;15.398;2023-04-03T08:44:15;1.20;;;1.10;;
12145;SDS011;6136;47.032;15.398;2023-04-03T08:49:45;1.70;;;1.30;;
12145;SDS011;6136;47.032;15.398;2023-04-03T08:52:18;0.90;;;0.90;;
12145;SDS011;6136;47.032;15.398;2023-04-03T08:54:51;0.97;;;0.97;;
12145;SDS011;6136;47.032;15.398;2023-04-03T08:57:25;2.60;;;1.20;;
12145;SDS011;6136;47.032;15.398;2023-04-03T08:59:59;1.53;;;1.23;;
12145;SDS011;6136;47.032;15.398;2023-04-03T09:02:31;1.30;;;1.20;;
12145;SDS011;6136;47.032;15.398;2023-04-03T09:05:05;1.57;;;1.00;;
12145;SDS011;6136;47.032;15.398;2023-04-03T09:07:42;1.40;;;1.27;;
12145;SDS011;6136;47.032;15.398;2023-04-03T09:10:15;1.37;;;1.07;;
12145;SDS011;6136;47.032;15.398;2023-04-03T09:12:53;2.23;;;1.37;;
12145;SDS011;6136;47.032;15.398;2023-04-03T09:15:28;1.40;;;1.30;;
12145;SDS011;6136;47.032;15.398;2023-04-03T09:18:05;1.30;;;1.20;;
12145;SDS011;6136;47.032;15.398;2023-04-03T09:20:43;0.90;;;0.90;;
12145;SDS011;6136;47.032;15.398;2023-04-03T09:23:20;1.93;;;0.90;;
12145;SDS011;6136;47.032;15.398;2023-04-03T09:25:53;1.43;;;1.10;;
12145;SDS011;6136;47.032;15.398;2023-04-03T09:28:25;1.20;;;1.10;;
12145;SDS011;6136;47.032;15.398;2023-04-03T09:31:05;3.27;;;0.90;;
12145;SDS011;6136;47.032;15.398;2023-04-03T09:33:46;1.93;;;1.00;;
12145;SDS011;6136;47.032;15.398;2023-04-03T09:39:12;1.07;;;1.07;;
12145;SDS011;6136;47.032;15.398;2023-04-03T09:41:44;1.00;;;1.00;;
12145;SDS011;6136;47.032;15.398;2023-04-03T09:44:24;1.17;;;1.07;;
12145;SDS011;6136;47.032;15.398;2023-04-03T09:46:55;1.20;;;1.10;;
12145;SDS011;6136;47.032;15.398;2023-04-03T09:49:23;1.20;;;1.10;;
12145;SDS011;6136;47.032;15.398;2023-04-03T09:51:52;1.20;;;1.10;;
12145;SDS011;6136;47.032;15.398;2023-04-03T09:54:26;2.47;;;1.20;;
12145;SDS011;6136;47.032;15.398;2023-04-03T09:57:01;0.90;;;0.90;;
12145;SDS011;6136;47.032;15.398;2023-04-03T09:59:34;1.80;;;1.40;;
12145;SDS011;6136;47.032;15.398;2023-04-03T10:02:15;1.10;;;1.00;;
12145;SDS011;6136;47.032;15.398;2023-04-03T10:05:05;2.10;;;1.00;;
12145;SDS011;6136;47.032;15.398;2023-04-03T10:08:07;1.30;;;1.20;;
12145;SDS011;6136;47.032;15.398;2023-04-03T10:10:37;2.00;;;1.10;;
12145;SDS011;6136;47.032;15.398;2023-04-03T10:13:06;1.10;;;1.10;;
12145;SDS011;6136;47.032;15.398;2023-04-03T10:15:48;1.33;;;1.13;;
12145;SDS011;6136;47.032;15.398;2023-04-03T10:18:27;1.57;;;1.13;;
12145;SDS011;6136;47.032;15.398;2023-04-03T10:21:02;1.10;;;1.00;;
12145;SDS011;6136;47.032;15.398;2023-04-03T10:23:48;1.10;;;1.10;;
12145;SDS011;6136;47.032;15.398;2023-04-03T10:26:25;2.97;;;1.20;;
12145;SDS011;6136;47.032;15.398;2023-04-03T10:29:06;1.10;;;1.00;;
12145;SDS011;6136;47.032;15.398;2023-04-03T10:31:45;1.10;;;1.00;;
12145;SDS011;6136;47.032;15.398;2023-04-03T10:34:21;1.80;;;1.10;;
12145;SDS011;6136;47.032;15.398;2023-04-03T10:36:56;1.33;;;1.17;;
12145;SDS011;6136;47.032;15.398;2023-04-03T10:39:33;1.40;;;1.30;;
12145;SDS011;6136;47.032;15.398;2023-04-03T10:42:11;1.33;;;1.00;;
12145;SDS011;6136;47.032;15.398;2023-04-03T10:44:59;1.30;;;1.20;;
12145;SDS011;6136;47.032;15.398;2023-04-03T10:47:36;1.30;;;1.20;;
12145;SDS011;6136;47.032;15.398;2023-04-03T10:50:22;0.93;;;0.93;;
12145;SDS011;6136;47.032;15.398;2023-04-03T10:52:57;1.10;;;1.10;;
12145;SDS011;6136;47.032;15.398;2023-04-03T10:55:34;1.60;;;1.27;;
12145;SDS011;6136;47.032;15.398;2023-04-03T10:58:06;1.37;;;1.20;;
12145;SDS011;6136;47.032;15.398;2023-04-03T11:00:41;1.23;;;1.10;;
12145;SDS011;6136;47.032;15.398;2023-04-03T11:03:14;1.17;;;1.07;;
12145;SDS011;6136;47.032;15.398;2023-04-03T11:05:59;1.30;;;1.17;;
12145;SDS011;6136;47.032;15.398;2023-04-03T11:08:32;1.10;;;1.00;;
12145;SDS011;6136;47.032;15.398;2023-04-03T11:11:06;0.80;;;0.80;;
12145;SDS011;6136;47.032;15.398;2023-04-03T11:13:40;1.13;;;1.00;;
12145;SDS011;6136;47.032;15.398;2023-04-03T11:16:12;1.30;;;1.20;;
12145;SDS011;6136;47.032;15.398;2023-04-03T11:18:46;1.00;;;1.00;;
12145;SDS011;6136;47.032;15.398;2023-04-03T11:21:21;0.93;;;0.93;;
12145;SDS011;6136;47.032;15.398;2023-04-03T11:23:56;1.80;;;1.40;;
12145;SDS011;6136;47.032;15.398;2023-04-03T11:26:26;1.08;;;1.00;;
12145;SDS011;6136;47.032;15.398;2023-04-03T11:28:59;1.23;;;1.13;;
12145;SDS011;6136;47.032;15.398;2023-04-03T11:31:43;1.52;;;1.20;;
12145;SDS011;6136;47.032;15.398;2023-04-03T11:34:26;1.33;;;1.23;;
12145;SDS011;6136;47.032;15.398;2023-04-03T11:37:10;1.27;;;1.10;;
12145;SDS011;6136;47.032;15.398;2023-04-03T11:39:47;1.60;;;1.48;;
12145;SDS011;6136;47.032;15.398;2023-04-03T11:42:24;1.10;;;1.10;;
12145;SDS011;6136;47.032;15.398;2023-04-03T11:48:41;1.23;;;1.13;;
12145;SDS011;6136;47.032;15.398;2023-04-03T12:09:25;1.40;;;1.30;;
12145;SDS011;6136;47.032;15.398;2023-04-03T12:18:39;1.60;;;1.35;;
12145;SDS011;6136;47.032;15.398;2023-04-03T12:21:11;1.52;;;1.30;;
12145;SDS011;6136;47.032;15.398;2023-04-03T12:23:57;1.40;;;1.30;;
12145;SDS011;6136;47.032;15.398;2023-04-03T12:26:30;1.83;;;1.17;;
12145;SDS011;6136;47.032;15.398;2023-04-03T12:29:15;2.88;;;1.33;;
12145;SDS011;6136;47.032;15.398;2023-04-03T12:31:50;2.30;;;1.30;;
12145;SDS011;6136;47.032;15.398;2023-04-03T12:34:41;1.27;;;1.17;;
12145;SDS011;6136;47.032;15.398;2023-04-03T12:37:21;4.18;;;1.35;;
12145;SDS011;6136;47.032;15.398;2023-04-03T12:40:06;2.75;;;1.48;;
12145;SDS011;6136;47.032;15.398;2023-04-03T12:42:51;1.30;;;1.20;;
12145;SDS011;6136;47.032;15.398;2023-04-03T12:45:37;1.42;;;1.20;;
12145;SDS011;6136;47.032;15.398;2023-04-03T12:48:12;2.40;;;1.35;;
12145;SDS011;6136;47.032;15.398;2023-04-03T12:50:45;2.25;;;1.35;;
12145;SDS011;6136;47.032;15.398;2023-04-03T12:53:16;1.05;;;1.05;;
12145;SDS011;6136;47.032;15.398;2023-04-03T12:55:47;2.00;;;1.33;;
12145;SDS011;6136;47.032;15.398;2023-04-03T12:58:16;1.27;;;1.15;;
12145;SDS011;6136;47.032;15.398;2023-04-03T13:00:58;1.25;;;1.20;;
12145;SDS011;6136;47.032;15.398;2023-04-03T13:03:28;1.30;;;1.20;;
12145;SDS011;6136;47.032;15.398;2023-04-03T13:06:01;1.30;;;1.20;;
12145;SDS011;6136;47.032;15.398;2023-04-03T13:08:30;4.13;;;1.35;;
12145;SDS011;6136;47.032;15.398;2023-04-03T13:11:00;1.67;;;1.30;;
12145;SDS011;6136;47.032;15.398;2023-04-03T13:13:30;1.45;;;1.10;;
12145;SDS011;6136;47.032;15.398;2023-04-03T13:15:58;1.40;;;1.20;;
12145;SDS011;6136;47.032;15.398;2023-04-03T13:18:28;1.30;;;1.20;;
12145;SDS011;6136;47.032;15.398;2023-04-03T13:21:00;1.65;;;1.48;;
12145;SDS011;6136;47.032;15.398;2023-04-03T13:23:33;1.77;;;1.30;;
12145;SDS011;6136;47.032;15.398;2023-04-03T13:26:03;3.22;;;1.42;;
12145;SDS011;6136;47.032;15.398;2023-04-03T13:28:34;1.67;;;1.33;;
12145;SDS011;6136;47.032;15.398;2023-04-03T13:31:04;1.10;;;1.10;;
12145;SDS011;6136;47.032;15.398;2023-04-03T13:33:37;1.98;;;1.40;;
12145;SDS011;6136;47.032;15.398;2023-04-03T13:36:10;1.50;;;1.20;;
12145;SDS011;6136;47.032;15.398;2023-04-03T13:38:46;2.22;;;1.10;;
12145;SDS011;6136;47.032;15.398;2023-04-03T13:41:29;1.20;;;1.10;;
12145;SDS011;6136;47.032;15.398;2023-04-03T13:46:44;1.27;;;1.17;;
12145;SDS011;6136;47.032;15.398;2023-04-03T13:49:20;1.00;;;1.00;;
12145;SDS011;6136;47.032;15.398;2023-04-03T13:51:51;1.43;;;1.33;;
12145;SDS011;6136;47.032;15.398;2023-04-03T13:54:33;1.83;;;1.43;;
12145;SDS011;6136;47.032;15.398;2023-04-03T13:57:10;3.17;;;1.40;;
12145;SDS011;6136;47.032;15.398;2023-04-03T13:59:41;1.90;;;1.30;;
12145;SDS011;6136;47.032;15.398;2023-04-03T14:02:13;2.40;;;1.20;;
12145;SDS011;6136;47.032;15.398;2023-04-03T14:04:46;1.60;;;1.20;;
12145;SDS011;6136;47.032;15.398;2023-04-03T14:07:20;1.17;;;1.10;;
12145;SDS011;6136;47.032;15.398;2023-04-03T14:09:48;1.58;;;1.27;;
12145;SDS011;6136;47.032;15.398;2023-04-03T14:12:18;1.30;;;1.20;;
12145;SDS011;6136;47.032;15.398;2023-04-03T14:14:57;1.35;;;1.23;;
12145;SDS011;6136;47.032;15.398;2023-04-03T14:17:28;1.35;;;1.25;;
12145;SDS011;6136;47.032;15.398;2023-04-03T14:19:58;1.63;;;1.08;;
12145;SDS011;6136;47.032;15.398;2023-04-03T14:22:29;1.23;;;0.93;;
12145;SDS011;6136;47.032;15.398;2023-04-03T14:25:00;1.30;;;1.17;;
12145;SDS011;6136;47.032;15.398;2023-04-03T14:27:29;1.40;;;1.30;;
12145;SDS011;6136;47.032;15.398;2023-04-03T14:30:02;1.00;;;1.00;;
12145;SDS011;6136;47.032;15.398;2023-04-03T14:32:32;1.65;;;1.55;;
12145;SDS011;6136;47.032;15.398;2023-04-03T14:35:01;1.20;;;1.10;;
12145;SDS011;6136;47.032;15.398;2023-04-03T14:37:31;1.10;;;1.10;;
12145;SDS011;6136;47.032;15.398;2023-04-03T14:40:00;1.10;;;1.00;;
12145;SDS011;6136;47.032;15.398;2023-04-03T14:42:31;1.50;;;1.30;;
12145;SDS011;6136;47.032;15.398;2023-04-03T14:45:01;1.40;;;1.30;;
12145;SDS011;6136;47.032;15.398;2023-04-03T14:47:32;1.40;;;1.23;;
12145;SDS011;6136;47.032;15.398;2023-04-03T14:50:01;1.87;;;1.50;;
12145;SDS011;6136;47.032;15.398;2023-04-03T14:52:34;2.17;;;1.13;;
12145;SDS011;6136;47.032;15.398;2023-04-03T14:55:07;1.40;;;1.30;;
12145;SDS011;6136;47.032;15.398;2023-04-03T14:57:36;1.80;;;1.27;;
12145;SDS011;6136;47.032;15.398;2023-04-03T15:00:07;2.50;;;1.00;;
12145;SDS011;6136;47.032;15.398;2023-04-03T15:02:40;1.47;;;1.30;;
12145;SDS011;6136;47.032;15.398;2023-04-03T15:05:09;1.30;;;1.20;;
12145;SDS011;6136;47.032;15.398;2023-04-03T15:07:41;1.67;;;1.27;;
12145;SDS011;6136;47.032;15.398;2023-04-03T15:10:15;1.10;;;1.10;;
12145;SDS011;6136;47.032;15.398;2023-04-03T15:12:46;1.90;;;1.60;;
12145;SDS011;6136;47.032;15.398;2023-04-03T15:15:16;2.57;;;1.37;;
12145;SDS011;6136;47.032;15.398;2023-04-03T15:17:47;1.57;;;1.27;;
12145;SDS011;6136;47.032;15.398;2023-04-03T15:20:21;1.10;;;1.00;;
12145;SDS011;6136;47.032;15.398;2023-04-03T15:22:53;1.63;;;1.50;;
12145;SDS011;6136;47.032;15.398;2023-04-03T15:25:23;1.67;;;1.57;;
12145;SDS011;6136;47.032;15.398;2023-04-03T15:27:52;2.10;;;1.50;;
12145;SDS011;6136;47.032;15.398;2023-04-03T15:30:21;1.70;;;1.60;;
12145;SDS011;6136;47.032;15.398;2023-04-03T15:32:50;2.77;;;1.50;;
12145;SDS011;6136;47.032;15.398;2023-04-03T15:35:19;2.93;;;1.57;;
12145;SDS011;6136;47.032;15.398;2023-04-03T15:37:48;1.50;;;1.30;;
12145;SDS011;6136;47.032;15.398;2023-04-03T15:40:19;3.37;;;1.40;;
12145;SDS011;6136;47.032;15.398;2023-04-03T15:42:47;1.33;;;1.30;;
12145;SDS011;6136;47.032;15.398;2023-04-03T15:45:18;1.83;;;1.30;;
12145;SDS011;6136;47.032;15.398;2023-04-03T15:47:47;1.97;;;1.37;;
12145;SDS011;6136;47.032;15.398;2023-04-03T15:50:16;1.50;;;1.40;;
12145;SDS011;6136;47.032;15.398;2023-04-03T15:52:44;1.90;;;1.70;;